TimeCST,TemperatureF,Dew PointF,Humidity,Sea Level PressureIn,VisibilityMPH,Wind Direction,Wind SpeedMPH,Gust SpeedMPH,PrecipitationIn,Events,Conditions,WindDirDegrees,DateUTC
12:53 AM,36.0,21.9,57,30.19,10.0,NW,16.1,28.8,N/A,,Overcast,320,2013-03-06 06:53:00
1:53 AM,36.0,19.9,52,30.20,10.0,NW,18.4,28.8,N/A,,Overcast,320,2013-03-06 07:53:00
2:53 AM,36.0,19.9,52,30.21,10.0,NW,13.8,27.6,N/A,,Overcast,310,2013-03-06 08:53:00
3:53 AM,36.0,19.9,52,30.22,10.0,NW,15.0,24.2,N/A,,Overcast,320,2013-03-06 09:53:00
4:53 AM,35.1,21.0,57,30.24,10.0,NNW,20.7,26.5,N/A,,Overcast,330,2013-03-06 10:53:00
5:53 AM,35.1,21.0,57,30.28,10.0,NW,9.2,-,N/A,,Overcast,320,2013-03-06 11:53:00
6:53 AM,34.0,19.9,56,30.31,10.0,North,17.3,23.0,N/A,,Overcast,350,2013-03-06 12:53:00
7:53 AM,34.0,19.9,56,30.34,10.0,NNW,16.1,25.3,N/A,,Overcast,340,2013-03-06 13:53:00
8:53 AM,35.1,21.0,57,30.36,10.0,North,16.1,-,N/A,,Mostly Cloudy,350,2013-03-06 14:53:00
9:53 AM,37.9,21.9,53,30.37,10.0,NNW,13.8,19.6,N/A,,Partly Cloudy,340,2013-03-06 15:53:00
10:53 AM,39.9,23.0,51,30.37,10.0,North,11.5,-,N/A,,Clear,360,2013-03-06 16:53:00
11:53 AM,42.1,23.0,47,30.36,10.0,North,9.2,17.3,N/A,,Clear,10,2013-03-06 17:53:00
12:53 PM,45.0,24.1,44,30.34,10.0,Calm,Calm,-,N/A,,Clear,0,2013-03-06 18:53:00
1:53 PM,46.9,25.0,42,30.31,10.0,Variable,3.5,-,N/A,,Clear,0,2013-03-06 19:53:00
2:53 PM,48.9,25.0,39,30.31,10.0,NNW,4.6,-,N/A,,Clear,340,2013-03-06 20:53:00
3:53 PM,46.9,26.1,44,30.31,10.0,East,5.8,-,N/A,,Clear,90,2013-03-06 21:53:00
4:53 PM,48.0,26.1,42,30.30,10.0,NE,4.6,-,N/A,,Clear,50,2013-03-06 22:53:00
5:53 PM,44.1,28.0,53,30.32,10.0,East,4.6,-,N/A,,Clear,90,2013-03-06 23:53:00
6:53 PM,42.1,27.0,55,30.32,10.0,East,4.6,-,N/A,,Clear,100,2013-03-07 00:53:00
7:53 PM,39.9,27.0,60,30.33,10.0,East,3.5,-,N/A,,Clear,80,2013-03-07 01:53:00
8:53 PM,35.1,28.9,78,30.34,10.0,Calm,Calm,-,N/A,,Clear,0,2013-03-07 02:53:00
9:53 PM,36.0,27.0,70,30.35,10.0,East,3.5,-,N/A,,Clear,80,2013-03-07 03:53:00
10:53 PM,32.0,28.0,85,30.35,10.0,Calm,Calm,-,N/A,,Clear,0,2013-03-07 04:53:00
11:53 PM,33.1,25.0,72,30.34,10.0,NE,3.5,-,N/A,,Clear,40,2013-03-07 05:53:00